Time;durP1;ratioP1;P1;durP2;ratioP2;P2;SDS_P1;SDS_P2;PMS_P1;PMS_P2;Temp;Humidity;BMP_temperature;BMP_pressure;BME280_temperature;BME280_humidity;BME280_pressure;Samples;Min_cycle;Max_cycle;Signal;HPM_P1;HPM_P2
2022/11/28 00:04:13;;;;;;;7.72;4.82;;;;;;;5.96;64.79;100187.34;10510337;28;20522;-77
2022/11/28 00:09:17;;;;;;;7.32;4.43;;;;;;;5.91;64.62;100163.63;10511725;28;20495;-80
2022/11/28 00:14:21;;;;;;;8.32;4.75;;;;;;;5.87;64.68;100154.13;10510351;28;20118;-78
2022/11/28 00:19:24;;;;;;;5.70;4.75;;;;;;;6.01;64.37;100147.91;10526306;28;20123;-78
2022/11/28 00:24:27;;;;;;;7.10;4.65;;;;;;;6.02;64.22;100162.09;10525561;28;20078;-79
2022/11/28 00:29:31;;;;;;;5.53;3.95;;;;;;;6.03;63.77;100169.13;10498368;28;20063;-78
2022/11/28 00:34:34;;;;;;;10.15;4.18;;;;;;;6.20;62.60;100152.88;10538764;28;20037;-79
2022/11/28 00:39:37;;;;;;;5.60;4.00;;;;;;;6.23;62.02;100142.00;10534679;28;20068;-79
2022/11/28 00:44:41;;;;;;;6.07;4.85;;;;;;;6.27;62.14;100122.16;10525152;28;20048;-78
2022/11/28 00:49:44;;;;;;;5.70;4.63;;;;;;;6.15;63.31;100134.50;10533887;28;20071;-79
2022/11/28 00:54:47;;;;;;;6.85;5.38;;;;;;;6.11;63.06;100127.66;10531283;28;20055;-79
2022/11/28 00:59:51;;;;;;;7.03;5.15;;;;;;;6.11;63.09;100140.97;10538286;28;20456;-80
2022/11/28 01:04:54;;;;;;;6.75;4.80;;;;;;;5.96;62.95;100118.00;10517058;28;20060;-79
2022/11/28 01:09:57;;;;;;;5.97;4.78;;;;;;;6.08;62.38;100113.66;10522079;28;20048;-78
2022/11/28 01:15:01;;;;;;;6.65;4.78;;;;;;;6.01;62.71;100099.06;10538242;28;20121;-78
2022/11/28 01:20:06;;;;;;;8.60;4.50;;;;;;;5.87;64.32;100087.50;10518460;28;20099;-78
2022/11/28 01:25:08;;;;;;;4.03;3.60;;;;;;;5.87;62.91;100084.81;10523799;28;20071;-80
2022/11/28 01:30:13;;;;;;;6.90;4.95;;;;;;;6.05;62.26;100071.22;10524316;28;20103;-78
2022/11/28 01:35:16;;;;;;;5.65;4.45;;;;;;;6.09;61.46;100072.72;10505829;28;20115;-79
2022/11/28 01:40:18;;;;;;;5.85;3.80;;;;;;;6.23;61.25;100063.81;10516333;28;20088;-79
2022/11/28 01:45:25;;;;;;;8.35;4.22;;;;;;;6.24;61.14;100055.69;10513172;28;20055;-78
2022/11/28 01:50:29;;;;;;;5.07;3.60;;;;;;;6.16;60.89;100050.84;10504062;28;20532;-78
2022/11/28 01:55:37;;;;;;;5.15;4.53;;;;;;;6.22;60.99;100057.59;10520512;28;20473;-78
2022/11/28 02:00:41;;;;;;;6.65;4.38;;;;;;;6.29;61.17;100052.69;10520083;28;20091;-77
2022/11/28 02:05:45;;;;;;;6.70;4.50;;;;;;;6.22;60.96;100064.75;10540987;28;20123;-76
2022/11/28 02:11:06;;;;;;;5.53;3.78;;;;;;;6.29;60.34;100066.88;10552547;28;20055;-77
2022/11/28 02:16:30;;;;;;;6.35;3.90;;;;;;;6.32;60.47;100047.16;10509348;28;20082;-79
2022/11/28 02:21:47;;;;;;;7.78;3.97;;;;;;;6.24;60.72;100038.81;10525744;28;20040;-79
2022/11/28 02:27:08;;;;;;;8.55;5.38;;;;;;;6.26;61.08;100047.59;10531269;28;20044;-78
2022/11/28 02:32:22;;;;;;;8.73;3.90;;;;;;;6.14;61.79;100039.47;10530999;28;20048;-77
2022/11/28 02:37:34;;;;;;;5.28;3.78;;;;;;;5.93;62.04;100025.75;10452296;28;20073;-77
2022/11/28 02:42:51;;;;;;;4.72;3.45;;;;;;;6.07;61.22;100019.50;10500448;28;20369;-77
2022/11/28 02:48:01;;;;;;;7.75;5.03;;;;;;;6.11;61.25;100017.47;10477353;28;20536;-76
2022/11/28 02:53:08;;;;;;;6.25;4.60;;;;;;;6.17;60.85;100023.25;10499579;28;20500;-78
2022/11/28 02:58:12;;;;;;;7.00;4.72;;;;;;;6.20;60.05;100023.97;10513170;28;20127;-77
2022/11/28 03:03:42;;;;;;;6.13;4.65;;;;;;;6.40;59.69;100018.13;10531976;28;20123;-77
2022/11/28 03:08:57;;;;;;;8.57;4.10;;;;;;;6.33;59.24;100022.19;10493915;28;20036;-77
2022/11/28 03:14:11;;;;;;;8.15;4.75;;;;;;;6.33;59.15;100012.34;10498790;28;20135;-78
2022/11/28 03:19:22;;;;;;;6.35;4.45;;;;;;;6.40;59.05;100010.97;10518076;28;20135;-78
2022/11/28 03:24:32;;;;;;;6.88;4.90;;;;;;;6.42;58.61;100007.34;10481134;28;20044;-78
2022/11/28 03:29:41;;;;;;;7.00;4.82;;;;;;;6.45;59.47;100009.81;10507175;28;20041;-78
2022/11/28 03:34:48;;;;;;;5.97;4.55;;;;;;;6.27;62.24;99999.44;10518486;28;20467;-78
2022/11/28 03:39:58;;;;;;;7.25;4.88;;;;;;;6.09;64.85;99998.06;10517872;28;20075;-77
2022/11/28 03:45:06;;;;;;;7.45;5.75;;;;;;;5.90;66.01;99999.31;10502782;28;20493;-77
2022/11/28 03:50:15;;;;;;;7.65;5.25;;;;;;;5.81;67.23;100002.56;10497245;28;20139;-78
2022/11/28 03:55:23;;;;;;;8.93;6.35;;;;;;;5.86;68.63;99992.47;10499947;28;20056;-77
2022/11/28 04:00:26;;;;;;;8.77;6.47;;;;;;;5.64;69.62;99995.72;10541750;28;20097;-77
2022/11/28 04:05:41;;;;;;;10.02;6.47;;;;;;;5.26;69.01;99976.94;10516786;28;20063;-77
2022/11/28 04:10:48;;;;;;;15.65;6.90;;;;;;;5.00;69.70;99965.34;10523305;28;20135;-77
2022/11/28 04:15:57;;;;;;;8.23;6.28;;;;;;;5.08;71.66;99973.69;10507202;28;20037;-77
2022/11/28 04:21:08;;;;;;;10.98;6.95;;;;;;;5.01;72.63;99953.72;10501269;28;20167;-77
2022/11/28 04:26:16;;;;;;;10.02;6.72;;;;;;;4.97;72.54;99965.50;10511997;28;20075;-77
2022/11/28 04:31:23;;;;;;;12.45;7.50;;;;;;;5.14;74.83;99978.59;10514860;28;20146;-78
2022/11/28 04:36:28;;;;;;;9.40;6.60;;;;;;;5.19;74.65;99979.16;10522771;28;20107;-77
2022/11/28 04:41:35;;;;;;;11.98;7.10;;;;;;;5.15;74.63;99982.09;10523267;28;20707;-77
2022/11/28 04:46:42;;;;;;;8.88;6.55;;;;;;;4.92;71.52;99978.25;10562980;28;20040;-76
2022/11/28 04:51:52;;;;;;;8.70;7.03;;;;;;;4.87;70.65;99975.88;10551709;28;20053;-76
2022/11/28 04:57:00;;;;;;;10.82;6.88;;;;;;;5.12;70.20;99980.50;10468360;28;20118;-76
2022/11/28 05:02:05;;;;;;;9.23;6.70;;;;;;;5.18;69.86;99981.91;10515015;28;20220;-76
2022/11/28 05:07:10;;;;;;;10.50;6.40;;;;;;;5.17;70.02;99981.06;10505990;28;20530;-78
2022/11/28 05:12:13;;;;;;;10.70;7.30;;;;;;;5.06;70.79;99951.63;10497597;28;20123;-77
2022/11/28 05:17:15;;;;;;;13.02;8.13;;;;;;;4.94;70.94;99963.88;10473870;28;20039;-77
2022/11/28 05:22:20;;;;;;;11.65;7.63;;;;;;;4.92;71.05;99962.28;10524378;28;20055;-77
2022/11/28 05:27:22;;;;;;;12.93;7.65;;;;;;;4.97;70.95;99973.47;10525318;28;20127;-77
2022/11/28 05:32:25;;;;;;;11.98;7.07;;;;;;;5.10;70.31;99969.13;10503263;28;20052;-77
2022/11/28 05:37:29;;;;;;;10.50;6.72;;;;;;;5.03;70.04;99971.31;10507923;28;20079;-77
2022/11/28 05:42:33;;;;;;;10.65;7.10;;;;;;;5.16;68.93;99963.38;10524870;28;20047;-77
2022/11/28 05:47:36;;;;;;;11.18;6.85;;;;;;;5.28;68.92;99975.88;10522574;28;20064;-77
2022/11/28 05:52:40;;;;;;;8.48;6.32;;;;;;;5.34;68.13;99973.78;10521080;28;20127;-77
2022/11/28 05:57:42;;;;;;;10.15;7.57;;;;;;;5.43;67.52;99983.81;10530832;28;20413;-77
2022/11/28 06:02:45;;;;;;;13.85;8.32;;;;;;;5.45;67.22;99977.44;10523650;28;20090;-77
2022/11/28 06:07:49;;;;;;;12.93;7.10;;;;;;;5.37;66.88;99987.72;10498064;28;20087;-77
2022/11/28 06:12:52;;;;;;;10.70;7.25;;;;;;;5.37;67.13;99993.06;10506648;28;20047;-77
2022/11/28 06:17:55;;;;;;;10.43;6.90;;;;;;;5.34;67.42;99993.25;10512954;28;20401;-76
2022/11/28 06:22:59;;;;;;;10.57;7.35;;;;;;;5.27;69.17;99981.31;10495300;28;20070;-78
2022/11/28 06:28:02;;;;;;;12.32;8.35;;;;;;;5.10;70.81;99986.88;10503875;28;20139;-77
2022/11/28 06:33:05;;;;;;;11.95;7.60;;;;;;;4.91;72.64;99979.19;10507329;28;20128;-77
2022/11/28 06:38:09;;;;;;;16.20;9.13;;;;;;;4.88;74.39;99992.69;10519698;28;20541;-77
2022/11/28 06:43:16;;;;;;;12.57;8.93;;;;;;;4.80;74.34;99994.03;10525012;28;20394;-76
2022/11/28 06:48:19;;;;;;;14.32;9.07;;;;;;;4.84;75.39;100008.00;10507149;28;20124;-76
2022/11/28 06:53:23;;;;;;;12.98;9.38;;;;;;;4.66;74.95;100011.81;10501314;28;20119;-77
2022/11/28 06:58:33;;;;;;;13.55;8.95;;;;;;;4.60;76.50;100008.56;10528843;28;20071;-76
2022/11/28 07:03:36;;;;;;;14.35;9.65;;;;;;;4.34;80.34;100012.00;10507980;28;20070;-75
2022/11/28 07:08:41;;;;;;;15.82;8.90;;;;;;;4.16;80.92;100009.50;10498692;28;20143;-77
2022/11/28 07:13:45;;;;;;;18.73;11.27;;;;;;;4.15;82.10;100022.91;10498374;28;20135;-77
2022/11/28 07:18:48;;;;;;;18.90;10.82;;;;;;;4.20;82.70;100020.81;10516383;28;20071;-76
2022/11/28 07:23:53;;;;;;;19.73;12.10;;;;;;;4.10;83.06;100001.88;10517345;28;20048;-76
2022/11/28 07:28:57;;;;;;;16.80;11.45;;;;;;;4.18;83.35;99998.78;10520164;28;20082;-77
2022/11/28 07:34:03;;;;;;;20.98;10.48;;;;;;;3.94;83.02;100012.56;10522604;28;20048;-77
2022/11/28 07:39:08;;;;;;;17.30;11.20;;;;;;;4.18;83.27;100004.09;10537782;28;20033;-78
2022/11/28 07:44:11;;;;;;;15.95;9.98;;;;;;;4.25;83.32;100009.88;10501641;28;20082;-78
2022/11/28 07:49:14;;;;;;;16.65;10.35;;;;;;;4.01;82.50;100021.06;10532694;28;20470;-78
2022/11/28 07:54:19;;;;;;;17.30;9.82;;;;;;;4.17;82.07;100010.38;10542909;28;20075;-78
2022/11/28 07:59:21;;;;;;;14.95;9.57;;;;;;;4.21;82.18;100019.00;10485338;28;20056;-78
2022/11/28 08:04:24;;;;;;;17.13;9.80;;;;;;;4.43;82.39;100023.88;10521663;28;20435;-76
2022/11/28 08:09:28;;;;;;;16.42;9.57;;;;;;;4.44;82.22;100021.09;10500897;28;20036;-78
2022/11/28 08:14:31;;;;;;;16.88;8.93;;;;;;;4.79;82.57;100021.59;10510816;28;20041;-77
2022/11/28 08:19:35;;;;;;;15.35;8.20;;;;;;;4.97;81.55;100022.25;10524015;28;20083;-76
2022/11/28 08:24:39;;;;;;;14.27;8.70;;;;;;;5.03;80.69;100023.69;10542970;28;20075;-77
2022/11/28 08:29:42;;;;;;;14.15;8.93;;;;;;;4.97;80.08;100024.91;10501365;28;20397;-76
2022/11/28 08:34:50;;;;;;;16.33;9.23;;;;;;;4.90;80.13;100022.72;10488311;28;20496;-78
2022/11/28 08:39:55;;;;;;;12.05;8.10;;;;;;;4.77;79.78;100014.66;10521130;28;20074;-76
2022/11/28 08:44:57;;;;;;;14.90;9.25;;;;;;;4.58;79.27;100023.81;10542147;28;20036;-79
2022/11/28 08:50:00;;;;;;;17.70;11.13;;;;;;;4.51;79.62;100016.28;10518903;28;20071;-76
2022/11/28 08:55:05;;;;;;;16.83;10.77;;;;;;;4.36;79.57;100018.06;10480818;28;20087;-77
2022/11/28 09:00:09;;;;;;;16.70;11.93;;;;;;;4.44;80.31;100017.59;10515129;28;20048;-77
2022/11/28 09:05:11;;;;;;;23.40;11.85;;;;;;;4.55;81.01;100024.00;10540542;28;20059;-78
2022/11/28 09:10:16;;;;;;;21.52;12.77;;;;;;;4.60;81.38;100010.38;10576441;28;20573;-78
2022/11/28 09:15:19;;;;;;;18.95;11.52;;;;;;;4.53;81.31;100022.38;10544185;28;20044;-77
2022/11/28 09:20:21;;;;;;;19.30;12.35;;;;;;;4.69;81.37;100025.78;10508317;28;20045;-76
2022/11/28 09:25:25;;;;;;;21.65;12.27;;;;;;;4.56;80.98;100019.53;10490666;28;20469;-79
2022/11/28 09:30:28;;;;;;;18.80;12.45;;;;;;;4.62;80.59;100024.44;10542911;28;20040;-79
2022/11/28 09:35:31;;;;;;;22.40;12.55;;;;;;;4.75;80.47;100021.91;10543657;28;20051;-78
2022/11/28 09:40:38;;;;;;;23.73;13.60;;;;;;;4.91;80.75;100019.97;10535417;28;20068;-79
2022/11/28 09:45:42;;;;;;;17.38;12.60;;;;;;;4.89;80.02;100011.22;10524631;28;20068;-79
2022/11/28 09:50:46;;;;;;;20.38;13.05;;;;;;;5.04;80.39;100006.75;10544365;28;20063;-76
2022/11/28 09:55:54;;;;;;;23.08;13.38;;;;;;;5.06;79.82;100012.84;10519113;28;20485;-78
2022/11/28 10:01:11;;;;;;;20.67;12.85;;;;;;;5.10;79.59;100014.38;10505403;28;20053;-78
2022/11/28 10:06:20;;;;;;;18.77;12.20;;;;;;;5.02;79.18;100017.53;10513048;28;20048;-77
2022/11/28 10:11:42;;;;;;;23.30;12.90;;;;;;;5.08;79.28;100018.94;10526370;28;20095;-78
2022/11/28 10:16:55;;;;;;;19.03;12.13;;;;;;;5.02;79.89;100022.84;10531392;28;20092;-79
2022/11/28 10:22:00;;;;;;;22.38;14.10;;;;;;;4.97;80.47;100027.56;10516339;28;20093;-78
2022/11/28 10:27:06;;;;;;;23.40;13.20;;;;;;;5.01;80.27;100009.63;10497763;28;20048;-77
2022/11/28 10:32:14;;;;;;;23.45;13.32;;;;;;;5.12;81.09;100015.09;10496507;28;20138;-78
2022/11/28 10:37:22;;;;;;;22.23;13.27;;;;;;;5.09;80.41;100017.97;10513145;28;20071;-79
2022/11/28 10:42:31;;;;;;;22.20;13.32;;;;;;;5.25;81.12;100017.84;10510018;28;20079;-79
2022/11/28 10:47:53;;;;;;;24.45;13.60;;;;;;;5.21;80.05;100013.66;10510421;28;20397;-77
2022/11/28 10:53:00;;;;;;;24.00;13.70;;;;;;;5.36;80.32;100007.34;10454842;28;20041;-77
2022/11/28 10:58:12;;;;;;;21.70;14.05;;;;;;;5.29;78.98;100006.03;10484747;28;20525;-76
2022/11/28 11:03:17;;;;;;;21.70;12.13;;;;;;;5.33;78.41;100018.19;10528888;28;20405;-77
2022/11/28 11:08:22;;;;;;;18.80;12.52;;;;;;;5.56;79.58;100003.38;10501657;28;20124;-79
2022/11/28 11:13:28;;;;;;;24.67;12.88;;;;;;;5.63;78.24;100002.00;10519693;28;20071;-78
2022/11/28 11:18:34;;;;;;;21.90;12.35;;;;;;;5.67;78.02;100000.84;10517821;28;20044;-76
2022/11/28 11:23:37;;;;;;;22.58;12.40;;;;;;;5.73;78.25;100000.44;10520163;28;20083;-78
2022/11/28 11:28:44;;;;;;;22.55;12.07;;;;;;;5.75;77.92;99999.47;10500361;28;20076;-77
2022/11/28 11:33:50;;;;;;;16.02;11.50;;;;;;;5.76;77.10;100011.84;10510136;28;20480;-78
2022/11/28 11:39:05;;;;;;;20.33;12.55;;;;;;;5.76;77.63;100012.72;10514217;28;20211;-77
2022/11/28 11:44:29;;;;;;;18.15;11.23;;;;;;;5.82;78.13;100000.78;10503813;28;20135;-77
2022/11/28 11:49:34;;;;;;;22.13;12.27;;;;;;;5.75;76.47;100011.00;10520385;28;20041;-79
2022/11/28 11:54:36;;;;;;;18.23;12.32;;;;;;;5.83;76.70;100002.50;10514540;28;20104;-78
2022/11/28 11:59:45;;;;;;;16.73;11.63;;;;;;;5.85;76.49;100001.44;10531403;28;20070;-78
2022/11/28 12:04:53;;;;;;;20.58;13.23;;;;;;;6.03;78.14;99999.31;10512606;28;20481;-78
2022/11/28 12:09:58;;;;;;;25.15;14.60;;;;;;;6.06;76.99;99992.91;10532014;28;20047;-78
2022/11/28 12:15:17;;;;;;;20.27;13.52;;;;;;;6.07;77.74;100002.63;10521655;28;20043;-78
2022/11/28 12:20:37;;;;;;;22.60;13.88;;;;;;;6.10;78.54;100005.94;10442032;28;20135;-78
2022/11/28 12:25:47;;;;;;;16.95;11.57;;;;;;;6.04;76.91;99997.53;10521804;28;20044;-77
2022/11/28 12:31:02;;;;;;;23.45;12.80;;;;;;;6.12;78.00;100005.84;10522838;28;20048;-78
2022/11/28 12:36:13;;;;;;;21.67;13.15;;;;;;;6.12;77.73;100001.38;10537927;28;20115;-78
2022/11/28 12:41:32;;;;;;;19.85;12.23;;;;;;;6.13;78.00;100003.06;10523699;28;20075;-77
2022/11/28 12:46:46;;;;;;;20.52;13.15;;;;;;;6.14;78.71;100001.25;10542332;28;20464;-77
2022/11/28 12:52:02;;;;;;;19.15;12.90;;;;;;;6.16;79.45;99997.50;10515119;28;20040;-77
2022/11/28 12:57:11;;;;;;;17.95;12.77;;;;;;;6.11;78.52;100002.31;10503119;28;20056;-77
2022/11/28 13:02:27;;;;;;;18.55;13.00;;;;;;;6.08;78.48;99999.00;10501359;28;20048;-77
2022/11/28 13:07:42;;;;;;;23.80;13.13;;;;;;;6.05;78.86;100000.06;10519510;28;20036;-78
2022/11/28 13:12:55;;;;;;;25.38;14.30;;;;;;;5.95;77.05;99999.84;10500057;28;20056;-77
2022/11/28 13:18:11;;;;;;;20.50;13.32;;;;;;;6.04;78.54;100002.84;10518614;28;20044;-77
2022/11/28 13:23:20;;;;;;;19.13;12.98;;;;;;;6.06;79.08;99993.78;10517016;28;20044;-76
2022/11/28 13:28:30;;;;;;;22.83;13.13;;;;;;;6.02;78.75;100002.09;10519974;28;20107;-77
2022/11/28 13:33:48;;;;;;;20.13;13.27;;;;;;;5.94;77.94;100003.47;10520186;28;20068;-76
2022/11/28 13:38:57;;;;;;;21.73;12.93;;;;;;;5.85;78.07;99998.75;10543395;28;20059;-77
2022/11/28 13:44:21;;;;;;;19.92;13.32;;;;;;;5.77;79.28;100000.25;10509017;28;20048;-76
2022/11/28 13:49:29;;;;;;;22.67;14.15;;;;;;;5.69;80.12;100012.25;10528186;28;20094;-78
2022/11/28 13:54:44;;;;;;;25.08;15.23;;;;;;;5.63;80.83;100006.50;10536094;28;20221;-77
2022/11/28 13:59:52;;;;;;;24.90;15.45;;;;;;;5.53;81.40;100008.03;10484874;28;20044;-78
2022/11/28 14:04:56;;;;;;;28.10;15.80;;;;;;;5.48;81.83;100014.53;10483239;28;20832;-78
2022/11/28 14:10:21;;;;;;;24.55;14.85;;;;;;;5.50;82.52;100009.09;10535528;28;20042;-80
2022/11/28 14:15:31;;;;;;;26.85;15.02;;;;;;;5.53;83.24;100013.38;10542650;28;20051;-79
2022/11/28 14:20:44;;;;;;;24.50;15.35;;;;;;;5.54;83.28;100017.75;10516887;28;20071;-77
2022/11/28 14:25:49;;;;;;;23.30;14.77;;;;;;;5.56;83.42;100023.84;10500919;28;20413;-79
2022/11/28 14:31:03;;;;;;;26.33;15.52;;;;;;;5.61;84.06;100025.22;10490619;28;20485;-78
2022/11/28 14:36:34;;;;;;;28.80;14.73;;;;;;;5.62;83.73;100023.41;10539817;28;20075;-79
2022/11/28 14:42:14;;;;;;;25.70;14.77;;;;;;;5.60;82.65;100033.34;10480109;28;20056;-79
2022/11/28 14:47:41;;;;;;;20.63;13.73;;;;;;;5.64;83.30;100033.03;10507274;28;20052;-78
2022/11/28 14:52:46;;;;;;;27.38;14.85;;;;;;;5.65;82.43;100041.88;10503225;28;20044;-78
2022/11/28 14:57:56;;;;;;;23.63;14.75;;;;;;;5.63;82.12;100043.81;10525848;28;20063;-77
2022/11/28 15:03:14;;;;;;;23.95;15.00;;;;;;;5.49;81.52;100044.72;10502311;28;20075;-78
2022/11/28 15:08:40;;;;;;;22.70;14.57;;;;;;;5.39;81.11;100049.75;10488534;28;20539;-77
2022/11/28 15:13:57;;;;;;;26.15;14.50;;;;;;;5.35;81.32;100063.38;10497268;28;20048;-79
2022/11/28 15:19:06;;;;;;;27.02;15.70;;;;;;;5.26;81.46;100055.00;10489303;28;20508;-78
2022/11/28 15:24:22;;;;;;;27.52;15.50;;;;;;;5.06;83.11;100055.44;10518783;28;20045;-78
2022/11/28 15:29:28;;;;;;;31.15;17.15;;;;;;;5.03;84.63;100053.81;10492602;28;20077;-78
2022/11/28 15:34:32;;;;;;;30.83;16.73;;;;;;;5.01;85.17;100052.22;10481098;28;20097;-78
2022/11/28 15:39:39;;;;;;;28.58;16.73;;;;;;;5.04;85.81;100052.88;10504214;28;20040;-78
2022/11/28 15:44:43;;;;;;;33.60;20.20;;;;;;;5.08;86.28;100052.69;10499939;28;20451;-79
2022/11/28 15:49:58;;;;;;;35.88;18.98;;;;;;;5.03;86.19;100050.31;10512940;28;20040;-79
2022/11/28 15:55:14;;;;;;;32.72;19.80;;;;;;;4.98;86.22;100058.56;10502793;28;20531;-78
2022/11/28 16:00:20;;;;;;;38.38;21.45;;;;;;;5.01;86.34;100060.19;10495640;28;20494;-79
2022/11/28 16:05:23;;;;;;;37.58;20.92;;;;;;;4.97;86.31;100064.84;10520284;28;20060;-78
2022/11/28 16:10:32;;;;;;;38.25;22.15;;;;;;;5.01;86.53;100066.38;10534022;28;20032;-79
2022/11/28 16:15:36;;;;;;;37.45;20.95;;;;;;;5.01;86.50;100069.03;10525498;28;20080;-79
2022/11/28 16:20:39;;;;;;;32.80;20.42;;;;;;;4.98;86.19;100063.88;10518278;28;20040;-79
2022/11/28 16:25:43;;;;;;;35.05;20.52;;;;;;;5.02;86.71;100073.44;10539755;28;20824;-79
2022/11/28 16:30:49;;;;;;;34.55;19.83;;;;;;;4.93;86.29;100073.09;10519445;28;20067;-78
2022/11/28 16:35:52;;;;;;;32.72;19.83;;;;;;;5.00;86.76;100082.47;10515688;28;20052;-80
2022/11/28 16:41:00;;;;;;;33.40;21.23;;;;;;;4.92;86.46;100080.22;10561257;28;20040;-80
2022/11/28 16:46:06;;;;;;;37.10;21.13;;;;;;;4.98;86.96;100086.97;10554391;28;20051;-79
2022/11/28 16:51:34;;;;;;;37.70;21.63;;;;;;;4.98;86.89;100087.84;10540628;28;20096;-79
2022/11/28 16:56:44;;;;;;;36.33;22.90;;;;;;;4.96;86.78;100095.06;10540714;28;20055;-79
2022/11/28 17:01:48;;;;;;;35.63;20.85;;;;;;;4.98;86.86;100093.16;10539343;28;20067;-79
2022/11/28 17:06:52;;;;;;;35.95;20.63;;;;;;;4.98;87.07;100101.16;10500367;28;20051;-80
2022/11/28 17:12:03;;;;;;;33.78;20.80;;;;;;;4.96;87.00;100097.72;10536583;28;20036;-80
2022/11/28 17:17:12;;;;;;;41.35;23.40;;;;;;;4.99;87.01;100099.34;10547133;28;20056;-81
2022/11/28 17:22:18;;;;;;;32.28;20.83;;;;;;;4.91;86.88;100097.16;10544201;28;20055;-80
2022/11/28 17:27:22;;;;;;;37.38;20.67;;;;;;;4.85;86.97;100100.19;10512558;28;20052;-80
2022/11/28 17:32:25;;;;;;;38.97;22.02;;;;;;;4.88;87.05;100096.47;10538435;28;20098;-80
2022/11/28 17:37:28;;;;;;;44.35;25.52;;;;;;;4.95;87.12;100103.16;10540994;28;20576;-80
2022/11/28 17:42:32;;;;;;;44.65;25.63;;;;;;;4.91;87.08;100101.59;10525354;28;20044;-76
2022/11/28 17:47:35;;;;;;;42.85;24.10;;;;;;;4.99;87.60;100100.25;10509297;28;20041;-79
2022/11/28 17:52:37;;;;;;;42.83;23.40;;;;;;;5.04;87.48;100103.44;10543311;28;20043;-80
2022/11/28 17:57:42;;;;;;;41.83;22.15;;;;;;;5.07;87.58;100097.06;10475136;28;20150;-80
2022/11/28 18:02:46;;;;;;;43.25;23.50;;;;;;;5.02;87.53;100097.38;10408355;28;20053;-79
2022/11/28 18:07:49;;;;;;;38.22;23.25;;;;;;;5.02;87.82;100100.06;10407760;28;20053;-80
2022/11/28 18:12:54;;;;;;;46.40;25.00;;;;;;;5.05;87.78;100105.19;10374687;28;20100;-80
2022/11/28 18:17:59;;;;;;;43.30;24.80;;;;;;;5.04;87.54;100102.59;10404619;28;20115;-79
2022/11/28 18:23:02;;;;;;;52.30;29.10;;;;;;;4.99;87.61;100102.91;10390559;28;20049;-80
2022/11/28 18:28:06;;;;;;;47.35;26.17;;;;;;;5.02;87.68;100112.50;10334621;28;20103;-81
2022/11/28 18:33:09;;;;;;;44.50;24.40;;;;;;;5.02;87.77;100118.69;10363616;28;20147;-81
2022/11/28 18:38:13;;;;;;;43.67;24.88;;;;;;;5.06;87.75;100120.19;10366271;28;20048;-80
2022/11/28 18:43:17;;;;;;;42.30;23.48;;;;;;;4.96;87.35;100126.13;10409092;28;20278;-81
2022/11/28 18:48:20;;;;;;;42.33;23.42;;;;;;;5.05;87.67;100130.94;10404680;28;20099;-80
2022/11/28 18:53:22;;;;;;;42.10;23.83;;;;;;;5.05;87.38;100133.63;10412784;28;20041;-78
2022/11/28 18:58:27;;;;;;;39.80;23.38;;;;;;;5.01;87.55;100124.09;10367467;28;20050;-82
2022/11/28 19:03:30;;;;;;;41.83;23.67;;;;;;;5.09;87.55;100134.28;10351522;28;20049;-81
2022/11/28 19:08:33;;;;;;;42.63;23.60;;;;;;;5.06;87.58;100143.31;10351871;28;20157;-81
2022/11/28 19:13:38;;;;;;;38.38;22.30;;;;;;;5.06;87.56;100138.81;10365021;28;20049;-80
2022/11/28 19:18:41;;;;;;;44.50;23.20;;;;;;;5.10;87.44;100154.59;10370163;28;20056;-83
2022/11/28 19:23:45;;;;;;;43.45;23.95;;;;;;;5.08;87.55;100138.75;10364576;28;20526;-79
2022/11/28 19:28:50;;;;;;;39.15;22.58;;;;;;;5.09;87.41;100150.25;10385713;28;20167;-81
2022/11/28 19:33:56;;;;;;;43.50;23.58;;;;;;;5.13;87.28;100143.75;10345703;28;20136;-80
2022/11/28 19:39:05;;;;;;;38.08;21.92;;;;;;;5.04;87.02;100155.84;10357582;28;20655;-81
2022/11/28 19:44:11;;;;;;;42.40;23.27;;;;;;;5.05;87.30;100158.44;10351548;28;20056;-82
2022/11/28 19:49:18;;;;;;;36.33;22.17;;;;;;;5.12;87.17;100160.69;10365265;28;20459;-81
2022/11/28 19:54:21;;;;;;;41.65;22.73;;;;;;;5.13;87.18;100165.06;10356997;28;20045;-82
2022/11/28 19:59:27;;;;;;;38.45;22.98;;;;;;;5.15;87.11;100166.69;10358142;28;20840;-81
2022/11/28 20:04:30;;;;;;;41.65;22.40;;;;;;;5.20;87.14;100166.41;10349042;28;20053;-80
2022/11/28 20:09:33;;;;;;;35.95;22.25;;;;;;;5.18;86.80;100176.28;10352433;28;20137;-82
2022/11/28 20:14:38;;;;;;;40.20;23.75;;;;;;;5.19;86.90;100178.88;10353649;28;20057;-80
2022/11/28 20:19:41;;;;;;;52.40;27.38;;;;;;;5.24;86.87;100181.25;10381006;28;20427;-80
2022/11/28 20:24:44;;;;;;;48.35;26.85;;;;;;;5.27;86.88;100179.25;10367197;28;20062;-80
2022/11/28 20:29:48;;;;;;;51.80;26.30;;;;;;;5.25;86.62;100182.97;10359370;28;20056;-81
2022/11/28 20:34:51;;;;;;;49.80;26.95;;;;;;;5.23;86.69;100188.38;10399910;28;20055;-80
2022/11/28 20:39:56;;;;;;;47.88;25.38;;;;;;;5.25;86.88;100193.63;10395840;28;20056;-80
2022/11/28 20:45:00;;;;;;;44.85;23.33;;;;;;;5.26;86.90;100197.97;10406478;28;20045;-79
2022/11/28 20:50:03;;;;;;;46.80;24.75;;;;;;;5.28;87.07;100191.59;10379569;28;20076;-79
2022/11/28 20:55:07;;;;;;;43.85;24.00;;;;;;;5.28;86.75;100202.25;10394900;28;20045;-80
2022/11/28 21:00:13;;;;;;;46.67;25.95;;;;;;;5.32;87.01;100208.28;10394048;28;20049;-79
2022/11/28 21:05:16;;;;;;;45.90;25.08;;;;;;;5.36;87.03;100207.13;10340016;28;20059;-80
2022/11/28 21:10:19;;;;;;;50.67;26.20;;;;;;;5.33;87.06;100201.97;10365740;28;20049;-79
2022/11/28 21:15:24;;;;;;;58.20;28.75;;;;;;;5.32;87.06;100202.06;10375189;28;20112;-81
2022/11/28 21:20:27;;;;;;;48.35;27.27;;;;;;;5.36;87.19;100207.13;10340926;28;20288;-80
2022/11/28 21:25:29;;;;;;;52.88;27.85;;;;;;;5.36;87.12;100201.78;10399932;28;20041;-81
2022/11/28 21:30:40;;;;;;;46.88;24.95;;;;;;;5.30;87.20;100206.66;10391017;28;20422;-81
2022/11/28 21:35:43;;;;;;;46.67;25.77;;;;;;;5.32;87.33;100212.72;10339567;28;20665;-80
2022/11/28 21:40:51;;;;;;;51.70;27.27;;;;;;;5.32;87.41;100210.06;10380667;28;20073;-81
2022/11/28 21:46:01;;;;;;;56.50;28.08;;;;;;;5.37;87.48;100214.16;10385398;28;20049;-79
2022/11/28 21:51:05;;;;;;;54.00;28.95;;;;;;;5.38;87.55;100217.69;10403805;28;20053;-81
2022/11/28 21:56:09;;;;;;;62.30;32.17;;;;;;;5.30;87.55;100212.84;10380782;28;20126;-80
2022/11/28 22:01:14;;;;;;;60.13;31.67;;;;;;;5.33;87.73;100209.97;10377207;28;20077;-80
2022/11/28 22:06:20;;;;;;;58.70;31.20;;;;;;;5.35;87.92;100213.41;10375269;28;20052;-80
2022/11/28 22:11:24;;;;;;;63.95;30.55;;;;;;;5.35;88.01;100216.06;10340579;28;20053;-81
2022/11/28 22:16:29;;;;;;;60.33;30.58;;;;;;;5.38;88.18;100207.03;10363529;28;20117;-81
2022/11/28 22:21:36;;;;;;;57.55;28.63;;;;;;;5.39;88.08;100214.91;10379923;28;20044;-78
2022/11/28 22:26:58;;;;;;;57.10;31.15;;;;;;;5.38;88.16;100213.22;10358750;28;20045;-80
2022/11/28 22:32:04;;;;;;;56.47;29.08;;;;;;;5.42;88.17;100224.53;10369792;28;20040;-79
2022/11/28 22:37:07;;;;;;;61.40;29.67;;;;;;;5.42;88.18;100221.88;10330112;28;20092;-80
2022/11/28 22:42:11;;;;;;;61.70;30.85;;;;;;;5.44;88.29;100215.50;10406220;28;20063;-80
2022/11/28 22:47:15;;;;;;;59.15;32.10;;;;;;;5.46;88.49;100210.94;10384727;28;20044;-79
2022/11/28 22:52:18;;;;;;;58.80;29.23;;;;;;;5.51;88.58;100210.63;10402230;28;20060;-79
2022/11/28 22:57:21;;;;;;;52.10;27.08;;;;;;;5.53;88.49;100213.19;10370121;28;20131;-81
2022/11/28 23:02:26;;;;;;;54.47;28.30;;;;;;;5.53;88.44;100218.53;10384981;28;20607;-79
2022/11/28 23:07:29;;;;;;;55.58;29.05;;;;;;;5.54;88.54;100217.56;10373949;28;20068;-79
2022/11/28 23:12:32;;;;;;;53.60;28.80;;;;;;;5.46;88.20;100215.41;10397722;28;20576;-80
2022/11/28 23:17:37;;;;;;;62.50;30.75;;;;;;;5.46;88.26;100218.06;10400113;28;20064;-79
2022/11/28 23:22:40;;;;;;;62.20;29.75;;;;;;;5.44;88.27;100228.81;10387470;28;20128;-79
2022/11/28 23:27:42;;;;;;;58.22;29.25;;;;;;;5.40;88.14;100227.31;10372261;28;20523;-80